sensor_id;sensor_type;location;lat;lon;timestamp;P1;durP1;ratioP1;P2;durP2;ratioP2
6564;SDS011;3316;44.118;27.258;2023-04-03T00:01:03;13.60;;;8.50;;
6564;SDS011;3316;44.118;27.258;2023-04-03T00:03:29;13.07;;;10.30;;
6564;SDS011;3316;44.118;27.258;2023-04-03T00:05:55;11.17;;;8.77;;
6564;SDS011;3316;44.118;27.258;2023-04-03T00:08:20;15.50;;;11.67;;
6564;SDS011;3316;44.118;27.258;2023-04-03T00:10:46;19.67;;;12.20;;
6564;SDS011;3316;44.118;27.258;2023-04-03T00:13:12;14.73;;;10.33;;
6564;SDS011;3316;44.118;27.258;2023-04-03T00:15:38;14.27;;;10.17;;
6564;SDS011;3316;44.118;27.258;2023-04-03T00:18:04;16.67;;;9.07;;
6564;SDS011;3316;44.118;27.258;2023-04-03T00:20:30;12.87;;;10.23;;
6564;SDS011;3316;44.118;27.258;2023-04-03T00:22:56;14.67;;;9.10;;
6564;SDS011;3316;44.118;27.258;2023-04-03T00:25:22;12.80;;;8.80;;
6564;SDS011;3316;44.118;27.258;2023-04-03T00:27:47;16.50;;;10.73;;
6564;SDS011;3316;44.118;27.258;2023-04-03T00:30:14;20.30;;;12.37;;
6564;SDS011;3316;44.118;27.258;2023-04-03T00:32:41;14.53;;;11.23;;
6564;SDS011;3316;44.118;27.258;2023-04-03T00:35:07;14.20;;;11.73;;
6564;SDS011;3316;44.118;27.258;2023-04-03T00:37:33;11.67;;;9.27;;
6564;SDS011;3316;44.118;27.258;2023-04-03T00:39:58;14.17;;;9.87;;
6564;SDS011;3316;44.118;27.258;2023-04-03T00:42:24;13.47;;;9.90;;
6564;SDS011;3316;44.118;27.258;2023-04-03T00:47:18;14.27;;;10.97;;
6564;SDS011;3316;44.118;27.258;2023-04-03T00:49:43;13.80;;;9.37;;
6564;SDS011;3316;44.118;27.258;2023-04-03T00:52:12;14.13;;;9.60;;
6564;SDS011;3316;44.118;27.258;2023-04-03T00:54:41;15.07;;;9.83;;
6564;SDS011;3316;44.118;27.258;2023-04-03T00:57:09;16.57;;;10.37;;
6564;SDS011;3316;44.118;27.258;2023-04-03T00:59:38;15.80;;;9.70;;
6564;SDS011;3316;44.118;27.258;2023-04-03T01:02:06;13.57;;;9.63;;
6564;SDS011;3316;44.118;27.258;2023-04-03T01:04:39;13.50;;;9.60;;
6564;SDS011;3316;44.118;27.258;2023-04-03T01:07:07;14.00;;;8.97;;
6564;SDS011;3316;44.118;27.258;2023-04-03T01:09:45;13.63;;;9.33;;
6564;SDS011;3316;44.118;27.258;2023-04-03T01:12:30;14.83;;;9.13;;
6564;SDS011;3316;44.118;27.258;2023-04-03T01:15:10;13.90;;;9.13;;
6564;SDS011;3316;44.118;27.258;2023-04-03T01:17:43;14.43;;;9.13;;
6564;SDS011;3316;44.118;27.258;2023-04-03T01:22:44;14.50;;;8.63;;
6564;SDS011;3316;44.118;27.258;2023-04-03T01:25:14;12.43;;;8.83;;
6564;SDS011;3316;44.118;27.258;2023-04-03T01:27:39;12.17;;;8.40;;
6564;SDS011;3316;44.118;27.258;2023-04-03T01:30:05;13.20;;;9.17;;
6564;SDS011;3316;44.118;27.258;2023-04-03T01:32:31;14.37;;;10.27;;
6564;SDS011;3316;44.118;27.258;2023-04-03T01:34:57;17.83;;;12.03;;
6564;SDS011;3316;44.118;27.258;2023-04-03T01:37:22;16.80;;;10.60;;
6564;SDS011;3316;44.118;27.258;2023-04-03T01:39:48;18.77;;;11.70;;
6564;SDS011;3316;44.118;27.258;2023-04-03T01:42:13;15.97;;;10.93;;
6564;SDS011;3316;44.118;27.258;2023-04-03T01:44:41;18.20;;;14.07;;
6564;SDS011;3316;44.118;27.258;2023-04-03T01:47:06;22.27;;;14.70;;
6564;SDS011;3316;44.118;27.258;2023-04-03T01:49:32;13.50;;;10.40;;
6564;SDS011;3316;44.118;27.258;2023-04-03T01:51:58;15.50;;;10.43;;
6564;SDS011;3316;44.118;27.258;2023-04-03T01:54:23;13.40;;;10.13;;
6564;SDS011;3316;44.118;27.258;2023-04-03T01:56:49;13.87;;;10.47;;
6564;SDS011;3316;44.118;27.258;2023-04-03T01:59:14;11.70;;;9.77;;
6564;SDS011;3316;44.118;27.258;2023-04-03T02:01:42;13.13;;;8.77;;
6564;SDS011;3316;44.118;27.258;2023-04-03T02:04:08;12.23;;;9.30;;
6564;SDS011;3316;44.118;27.258;2023-04-03T02:06:34;12.13;;;9.73;;
6564;SDS011;3316;44.118;27.258;2023-04-03T02:08:59;12.13;;;9.07;;
6564;SDS011;3316;44.118;27.258;2023-04-03T02:11:25;11.93;;;9.10;;
6564;SDS011;3316;44.118;27.258;2023-04-03T02:13:50;13.40;;;10.23;;
6564;SDS011;3316;44.118;27.258;2023-04-03T02:16:16;19.53;;;10.63;;
6564;SDS011;3316;44.118;27.258;2023-04-03T02:18:41;20.53;;;15.60;;
6564;SDS011;3316;44.118;27.258;2023-04-03T02:21:07;22.00;;;14.77;;
6564;SDS011;3316;44.118;27.258;2023-04-03T02:23:32;24.70;;;18.03;;
6564;SDS011;3316;44.118;27.258;2023-04-03T02:26:08;21.67;;;16.33;;
6564;SDS011;3316;44.118;27.258;2023-04-03T02:28:35;26.00;;;17.47;;
6564;SDS011;3316;44.118;27.258;2023-04-03T02:31:01;23.57;;;14.63;;
6564;SDS011;3316;44.118;27.258;2023-04-03T02:33:27;22.70;;;15.10;;
6564;SDS011;3316;44.118;27.258;2023-04-03T02:35:54;24.40;;;15.70;;
6564;SDS011;3316;44.118;27.258;2023-04-03T02:38:20;23.97;;;15.57;;
6564;SDS011;3316;44.118;27.258;2023-04-03T02:40:46;22.83;;;15.17;;
6564;SDS011;3316;44.118;27.258;2023-04-03T02:43:12;22.90;;;15.60;;
6564;SDS011;3316;44.118;27.258;2023-04-03T02:45:37;21.80;;;14.53;;
6564;SDS011;3316;44.118;27.258;2023-04-03T02:48:02;24.97;;;14.73;;
6564;SDS011;3316;44.118;27.258;2023-04-03T02:50:28;20.60;;;13.33;;
6564;SDS011;3316;44.118;27.258;2023-04-03T02:52:54;23.07;;;14.43;;
6564;SDS011;3316;44.118;27.258;2023-04-03T02:55:19;21.23;;;14.43;;
6564;SDS011;3316;44.118;27.258;2023-04-03T02:57:45;31.87;;;18.00;;
6564;SDS011;3316;44.118;27.258;2023-04-03T03:00:10;21.03;;;13.60;;
6564;SDS011;3316;44.118;27.258;2023-04-03T03:02:36;26.97;;;16.00;;
6564;SDS011;3316;44.118;27.258;2023-04-03T03:05:01;41.03;;;19.30;;
6564;SDS011;3316;44.118;27.258;2023-04-03T03:07:27;45.40;;;29.17;;
6564;SDS011;3316;44.118;27.258;2023-04-03T03:09:52;64.33;;;36.43;;
6564;SDS011;3316;44.118;27.258;2023-04-03T03:12:18;76.60;;;47.77;;
6564;SDS011;3316;44.118;27.258;2023-04-03T03:14:47;90.73;;;56.37;;
6564;SDS011;3316;44.118;27.258;2023-04-03T03:17:13;80.67;;;53.20;;
6564;SDS011;3316;44.118;27.258;2023-04-03T03:19:38;73.33;;;50.63;;
6564;SDS011;3316;44.118;27.258;2023-04-03T03:22:04;59.93;;;37.30;;
6564;SDS011;3316;44.118;27.258;2023-04-03T03:24:29;64.70;;;37.80;;
6564;SDS011;3316;44.118;27.258;2023-04-03T03:26:55;47.63;;;24.60;;
6564;SDS011;3316;44.118;27.258;2023-04-03T03:29:20;26.47;;;14.40;;
6564;SDS011;3316;44.118;27.258;2023-04-03T03:31:46;19.93;;;10.37;;
6564;SDS011;3316;44.118;27.258;2023-04-03T03:34:11;40.93;;;16.07;;
6564;SDS011;3316;44.118;27.258;2023-04-03T03:36:37;25.07;;;12.27;;
6564;SDS011;3316;44.118;27.258;2023-04-03T03:39:03;22.37;;;12.43;;
6564;SDS011;3316;44.118;27.258;2023-04-03T03:41:29;26.57;;;11.73;;
6564;SDS011;3316;44.118;27.258;2023-04-03T03:43:55;14.07;;;8.93;;
6564;SDS011;3316;44.118;27.258;2023-04-03T03:46:20;10.03;;;7.80;;
6564;SDS011;3316;44.118;27.258;2023-04-03T03:48:46;12.33;;;7.57;;
6564;SDS011;3316;44.118;27.258;2023-04-03T03:51:11;11.07;;;7.63;;
6564;SDS011;3316;44.118;27.258;2023-04-03T03:53:36;9.93;;;7.30;;
6564;SDS011;3316;44.118;27.258;2023-04-03T03:56:02;9.07;;;7.20;;
6564;SDS011;3316;44.118;27.258;2023-04-03T03:58:28;10.27;;;7.90;;
6564;SDS011;3316;44.118;27.258;2023-04-03T04:00:54;15.23;;;12.23;;
6564;SDS011;3316;44.118;27.258;2023-04-03T04:03:20;30.27;;;21.03;;
6564;SDS011;3316;44.118;27.258;2023-04-03T04:05:46;52.23;;;35.33;;
6564;SDS011;3316;44.118;27.258;2023-04-03T04:08:11;53.97;;;36.17;;
6564;SDS011;3316;44.118;27.258;2023-04-03T04:10:37;47.07;;;32.40;;
6564;SDS011;3316;44.118;27.258;2023-04-03T04:13:03;51.97;;;32.63;;
6564;SDS011;3316;44.118;27.258;2023-04-03T04:15:28;32.83;;;21.20;;
6564;SDS011;3316;44.118;27.258;2023-04-03T04:17:54;58.20;;;37.20;;
6564;SDS011;3316;44.118;27.258;2023-04-03T04:20:20;70.37;;;40.93;;
6564;SDS011;3316;44.118;27.258;2023-04-03T04:22:45;86.03;;;39.03;;
6564;SDS011;3316;44.118;27.258;2023-04-03T04:25:11;72.07;;;34.23;;
6564;SDS011;3316;44.118;27.258;2023-04-03T04:27:37;60.10;;;25.10;;
6564;SDS011;3316;44.118;27.258;2023-04-03T04:30:03;34.77;;;20.67;;
6564;SDS011;3316;44.118;27.258;2023-04-03T04:32:29;77.87;;;33.77;;
6564;SDS011;3316;44.118;27.258;2023-04-03T04:34:55;60.77;;;25.53;;
6564;SDS011;3316;44.118;27.258;2023-04-03T04:37:20;19.03;;;11.97;;
6564;SDS011;3316;44.118;27.258;2023-04-03T04:39:46;20.70;;;12.73;;
6564;SDS011;3316;44.118;27.258;2023-04-03T04:42:11;86.53;;;51.37;;
6564;SDS011;3316;44.118;27.258;2023-04-03T04:44:38;69.17;;;42.13;;
6564;SDS011;3316;44.118;27.258;2023-04-03T04:47:04;68.93;;;43.70;;
6564;SDS011;3316;44.118;27.258;2023-04-03T04:49:30;79.80;;;44.40;;
6564;SDS011;3316;44.118;27.258;2023-04-03T04:51:55;56.67;;;32.80;;
6564;SDS011;3316;44.118;27.258;2023-04-03T04:54:21;73.23;;;39.57;;
6564;SDS011;3316;44.118;27.258;2023-04-03T04:56:46;72.13;;;39.60;;
6564;SDS011;3316;44.118;27.258;2023-04-03T04:59:12;69.20;;;37.03;;
6564;SDS011;3316;44.118;27.258;2023-04-03T05:01:37;55.27;;;31.97;;
6564;SDS011;3316;44.118;27.258;2023-04-03T05:04:03;49.43;;;27.47;;
6564;SDS011;3316;44.118;27.258;2023-04-03T05:06:28;41.63;;;24.53;;
6564;SDS011;3316;44.118;27.258;2023-04-03T05:08:55;62.80;;;29.30;;
6564;SDS011;3316;44.118;27.258;2023-04-03T05:11:21;61.27;;;37.40;;
6564;SDS011;3316;44.118;27.258;2023-04-03T05:13:46;65.17;;;35.20;;
6564;SDS011;3316;44.118;27.258;2023-04-03T05:16:12;61.17;;;34.63;;
6564;SDS011;3316;44.118;27.258;2023-04-03T05:18:37;46.07;;;27.77;;
6564;SDS011;3316;44.118;27.258;2023-04-03T05:21:03;53.00;;;27.90;;
6564;SDS011;3316;44.118;27.258;2023-04-03T05:23:28;54.13;;;29.80;;
6564;SDS011;3316;44.118;27.258;2023-04-03T05:25:54;59.93;;;34.97;;
6564;SDS011;3316;44.118;27.258;2023-04-03T05:28:19;36.23;;;21.57;;
6564;SDS011;3316;44.118;27.258;2023-04-03T05:30:44;35.37;;;18.53;;
6564;SDS011;3316;44.118;27.258;2023-04-03T05:33:10;38.30;;;22.03;;
6564;SDS011;3316;44.118;27.258;2023-04-03T05:35:36;28.03;;;16.57;;
6564;SDS011;3316;44.118;27.258;2023-04-03T05:38:06;35.07;;;19.57;;
6564;SDS011;3316;44.118;27.258;2023-04-03T05:40:32;42.90;;;23.77;;
6564;SDS011;3316;44.118;27.258;2023-04-03T05:42:57;38.20;;;22.60;;
6564;SDS011;3316;44.118;27.258;2023-04-03T05:45:23;36.97;;;24.10;;
6564;SDS011;3316;44.118;27.258;2023-04-03T05:47:48;33.73;;;20.23;;
6564;SDS011;3316;44.118;27.258;2023-04-03T05:50:14;37.07;;;21.47;;
6564;SDS011;3316;44.118;27.258;2023-04-03T05:52:40;30.27;;;19.20;;
6564;SDS011;3316;44.118;27.258;2023-04-03T05:55:09;38.30;;;19.50;;
6564;SDS011;3316;44.118;27.258;2023-04-03T05:57:35;32.23;;;20.27;;
6564;SDS011;3316;44.118;27.258;2023-04-03T06:00:00;33.35;;;19.70;;
6564;SDS011;3316;44.118;27.258;2023-04-03T06:02:26;25.48;;;15.18;;
6564;SDS011;3316;44.118;27.258;2023-04-03T06:04:52;15.00;;;9.93;;
6564;SDS011;3316;44.118;27.258;2023-04-03T06:07:21;15.40;;;10.20;;
6564;SDS011;3316;44.118;27.258;2023-04-03T06:09:52;11.27;;;8.38;;
6564;SDS011;3316;44.118;27.258;2023-04-03T06:12:18;11.13;;;7.90;;
6564;SDS011;3316;44.118;27.258;2023-04-03T06:14:43;12.93;;;7.03;;
6564;SDS011;3316;44.118;27.258;2023-04-03T06:17:09;11.60;;;7.80;;
6564;SDS011;3316;44.118;27.258;2023-04-03T06:19:35;15.43;;;8.32;;
6564;SDS011;3316;44.118;27.258;2023-04-03T06:22:01;18.08;;;8.25;;
6564;SDS011;3316;44.118;27.258;2023-04-03T06:24:28;18.67;;;9.60;;
6564;SDS011;3316;44.118;27.258;2023-04-03T06:26:53;11.75;;;7.85;;
6564;SDS011;3316;44.118;27.258;2023-04-03T06:29:19;10.35;;;8.20;;
6564;SDS011;3316;44.118;27.258;2023-04-03T06:31:45;9.82;;;7.65;;
6564;SDS011;3316;44.118;27.258;2023-04-03T06:34:11;10.55;;;8.15;;
6564;SDS011;3316;44.118;27.258;2023-04-03T06:36:37;14.55;;;7.88;;
6564;SDS011;3316;44.118;27.258;2023-04-03T06:39:03;10.05;;;7.32;;
6564;SDS011;3316;44.118;27.258;2023-04-03T06:41:30;11.13;;;7.80;;
6564;SDS011;3316;44.118;27.258;2023-04-03T06:43:55;10.25;;;7.90;;
6564;SDS011;3316;44.118;27.258;2023-04-03T06:46:23;11.02;;;8.63;;
6564;SDS011;3316;44.118;27.258;2023-04-03T06:48:49;10.82;;;8.15;;
6564;SDS011;3316;44.118;27.258;2023-04-03T06:53:49;11.35;;;8.23;;
6564;SDS011;3316;44.118;27.258;2023-04-03T06:56:16;11.25;;;7.80;;
6564;SDS011;3316;44.118;27.258;2023-04-03T06:58:42;10.48;;;7.28;;
6564;SDS011;3316;44.118;27.258;2023-04-03T07:01:09;17.83;;;9.00;;
6564;SDS011;3316;44.118;27.258;2023-04-03T07:03:36;15.05;;;8.93;;
6564;SDS011;3316;44.118;27.258;2023-04-03T07:06:02;8.27;;;6.60;;
6564;SDS011;3316;44.118;27.258;2023-04-03T07:08:28;11.95;;;7.50;;
6564;SDS011;3316;44.118;27.258;2023-04-03T07:10:54;11.13;;;6.90;;
6564;SDS011;3316;44.118;27.258;2023-04-03T07:13:20;10.10;;;7.07;;
6564;SDS011;3316;44.118;27.258;2023-04-03T07:15:45;13.52;;;8.07;;
6564;SDS011;3316;44.118;27.258;2023-04-03T07:18:11;9.23;;;6.90;;
6564;SDS011;3316;44.118;27.258;2023-04-03T07:20:36;11.13;;;8.20;;
6564;SDS011;3316;44.118;27.258;2023-04-03T07:23:03;12.45;;;6.68;;
6564;SDS011;3316;44.118;27.258;2023-04-03T07:25:28;9.13;;;6.57;;
6564;SDS011;3316;44.118;27.258;2023-04-03T07:27:55;8.38;;;6.40;;
6564;SDS011;3316;44.118;27.258;2023-04-03T07:30:21;10.80;;;7.20;;
6564;SDS011;3316;44.118;27.258;2023-04-03T07:32:47;11.52;;;7.20;;
6564;SDS011;3316;44.118;27.258;2023-04-03T07:35:12;12.48;;;7.18;;
6564;SDS011;3316;44.118;27.258;2023-04-03T07:37:38;12.18;;;7.80;;
6564;SDS011;3316;44.118;27.258;2023-04-03T07:40:03;8.20;;;6.10;;
6564;SDS011;3316;44.118;27.258;2023-04-03T07:42:30;9.50;;;6.22;;
6564;SDS011;3316;44.118;27.258;2023-04-03T07:44:55;7.55;;;5.97;;
6564;SDS011;3316;44.118;27.258;2023-04-03T07:47:21;9.95;;;6.95;;
6564;SDS011;3316;44.118;27.258;2023-04-03T07:49:47;9.20;;;7.00;;
6564;SDS011;3316;44.118;27.258;2023-04-03T07:52:13;7.90;;;5.90;;
6564;SDS011;3316;44.118;27.258;2023-04-03T07:54:42;9.27;;;6.40;;
6564;SDS011;3316;44.118;27.258;2023-04-03T07:57:07;7.77;;;6.20;;
6564;SDS011;3316;44.118;27.258;2023-04-03T07:59:33;9.73;;;6.43;;
6564;SDS011;3316;44.118;27.258;2023-04-03T08:01:58;10.97;;;6.43;;
6564;SDS011;3316;44.118;27.258;2023-04-03T08:04:24;8.70;;;6.57;;
6564;SDS011;3316;44.118;27.258;2023-04-03T08:06:51;8.63;;;6.13;;
6564;SDS011;3316;44.118;27.258;2023-04-03T08:09:17;9.07;;;6.43;;
6564;SDS011;3316;44.118;27.258;2023-04-03T08:11:43;7.03;;;5.83;;
6564;SDS011;3316;44.118;27.258;2023-04-03T08:14:09;8.80;;;7.00;;
6564;SDS011;3316;44.118;27.258;2023-04-03T08:16:40;7.93;;;6.37;;
6564;SDS011;3316;44.118;27.258;2023-04-03T08:19:06;8.83;;;6.33;;
6564;SDS011;3316;44.118;27.258;2023-04-03T08:21:32;8.47;;;6.50;;
6564;SDS011;3316;44.118;27.258;2023-04-03T08:23:58;8.10;;;6.47;;
6564;SDS011;3316;44.118;27.258;2023-04-03T08:26:23;6.03;;;5.30;;
6564;SDS011;3316;44.118;27.258;2023-04-03T08:28:49;7.17;;;5.90;;
6564;SDS011;3316;44.118;27.258;2023-04-03T08:31:15;9.80;;;6.27;;
6564;SDS011;3316;44.118;27.258;2023-04-03T08:33:43;7.43;;;6.40;;
6564;SDS011;3316;44.118;27.258;2023-04-03T08:36:43;9.63;;;6.37;;
6564;SDS011;3316;44.118;27.258;2023-04-03T08:39:01;9.20;;;6.73;;
6564;SDS011;3316;44.118;27.258;2023-04-03T08:41:37;9.40;;;6.60;;
6564;SDS011;3316;44.118;27.258;2023-04-03T08:44:24;8.87;;;7.00;;
6564;SDS011;3316;44.118;27.258;2023-04-03T08:47:07;13.03;;;8.10;;
6564;SDS011;3316;44.118;27.258;2023-04-03T08:50:05;8.60;;;6.43;;
6564;SDS011;3316;44.118;27.258;2023-04-03T08:52:44;9.57;;;6.67;;
6564;SDS011;3316;44.118;27.258;2023-04-03T08:57:54;8.20;;;6.73;;
6564;SDS011;3316;44.118;27.258;2023-04-03T09:00:26;14.70;;;7.97;;
6564;SDS011;3316;44.118;27.258;2023-04-03T09:02:55;9.00;;;7.27;;
6564;SDS011;3316;44.118;27.258;2023-04-03T09:08:00;11.80;;;7.30;;
6564;SDS011;3316;44.118;27.258;2023-04-03T09:10:35;10.07;;;6.40;;
6564;SDS011;3316;44.118;27.258;2023-04-03T09:13:23;10.97;;;7.13;;
6564;SDS011;3316;44.118;27.258;2023-04-03T09:15:56;12.30;;;7.50;;
6564;SDS011;3316;44.118;27.258;2023-04-03T09:18:32;11.63;;;8.10;;
6564;SDS011;3316;44.118;27.258;2023-04-03T09:23:58;10.50;;;8.00;;
6564;SDS011;3316;44.118;27.258;2023-04-03T09:26:28;13.03;;;7.93;;
6564;SDS011;3316;44.118;27.258;2023-04-03T09:28:58;9.87;;;7.20;;
6564;SDS011;3316;44.118;27.258;2023-04-03T09:31:29;11.80;;;8.13;;
6564;SDS011;3316;44.118;27.258;2023-04-03T09:34:02;8.33;;;7.30;;
6564;SDS011;3316;44.118;27.258;2023-04-03T09:36:40;11.40;;;7.30;;
6564;SDS011;3316;44.118;27.258;2023-04-03T09:39:09;12.73;;;7.90;;
6564;SDS011;3316;44.118;27.258;2023-04-03T09:41:37;11.03;;;7.57;;
6564;SDS011;3316;44.118;27.258;2023-04-03T09:44:02;9.63;;;7.30;;
6564;SDS011;3316;44.118;27.258;2023-04-03T09:46:42;8.87;;;7.00;;
6564;SDS011;3316;44.118;27.258;2023-04-03T09:49:09;8.73;;;6.70;;
6564;SDS011;3316;44.118;27.258;2023-04-03T09:51:37;8.53;;;6.83;;
6564;SDS011;3316;44.118;27.258;2023-04-03T09:54:23;11.83;;;7.37;;
6564;SDS011;3316;44.118;27.258;2023-04-03T09:56:54;11.00;;;8.00;;
6564;SDS011;3316;44.118;27.258;2023-04-03T09:59:21;9.00;;;7.20;;
6564;SDS011;3316;44.118;27.258;2023-04-03T10:02:03;14.00;;;7.73;;
6564;SDS011;3316;44.118;27.258;2023-04-03T10:04:49;9.63;;;7.20;;
6564;SDS011;3316;44.118;27.258;2023-04-03T10:07:29;12.27;;;7.70;;
6564;SDS011;3316;44.118;27.258;2023-04-03T10:10:20;10.70;;;7.60;;
6564;SDS011;3316;44.118;27.258;2023-04-03T10:12:49;11.53;;;7.00;;
6564;SDS011;3316;44.118;27.258;2023-04-03T10:15:29;11.27;;;7.57;;
6564;SDS011;3316;44.118;27.258;2023-04-03T10:18:08;9.27;;;6.93;;
6564;SDS011;3316;44.118;27.258;2023-04-03T10:20:58;13.80;;;8.97;;
6564;SDS011;3316;44.118;27.258;2023-04-03T10:23:42;9.70;;;7.93;;
6564;SDS011;3316;44.118;27.258;2023-04-03T10:34:05;8.40;;;6.53;;
6564;SDS011;3316;44.118;27.258;2023-04-03T10:39:28;8.77;;;6.87;;
6564;SDS011;3316;44.118;27.258;2023-04-03T10:47:40;8.53;;;6.77;;
6564;SDS011;3316;44.118;27.258;2023-04-03T10:58:36;8.70;;;6.63;;
6564;SDS011;3316;44.118;27.258;2023-04-03T11:01:09;9.40;;;7.13;;
6564;SDS011;3316;44.118;27.258;2023-04-03T11:03:40;14.47;;;9.40;;
6564;SDS011;3316;44.118;27.258;2023-04-03T11:06:10;10.93;;;7.57;;
6564;SDS011;3316;44.118;27.258;2023-04-03T11:11:13;8.37;;;6.93;;
6564;SDS011;3316;44.118;27.258;2023-04-03T11:16:26;12.97;;;8.57;;
6564;SDS011;3316;44.118;27.258;2023-04-03T11:19:01;8.93;;;7.13;;
6564;SDS011;3316;44.118;27.258;2023-04-03T11:21:34;8.73;;;7.03;;
6564;SDS011;3316;44.118;27.258;2023-04-03T11:24:05;8.20;;;6.23;;
6564;SDS011;3316;44.118;27.258;2023-04-03T11:26:42;6.93;;;5.37;;
6564;SDS011;3316;44.118;27.258;2023-04-03T11:29:10;6.77;;;5.10;;
6564;SDS011;3316;44.118;27.258;2023-04-03T11:31:51;8.13;;;6.40;;
6564;SDS011;3316;44.118;27.258;2023-04-03T11:34:49;12.60;;;8.87;;
6564;SDS011;3316;44.118;27.258;2023-04-03T11:42:43;8.63;;;6.00;;
6564;SDS011;3316;44.118;27.258;2023-04-03T12:11:23;8.30;;;6.03;;
6564;SDS011;3316;44.118;27.258;2023-04-03T12:16:24;9.27;;;5.70;;
6564;SDS011;3316;44.118;27.258;2023-04-03T12:24:01;8.70;;;4.60;;
6564;SDS011;3316;44.118;27.258;2023-04-03T12:35:38;8.50;;;5.37;;
6564;SDS011;3316;44.118;27.258;2023-04-03T12:46:51;7.00;;;5.13;;
6564;SDS011;3316;44.118;27.258;2023-04-03T12:52:19;6.47;;;4.93;;
6564;SDS011;3316;44.118;27.258;2023-04-03T12:54:57;6.73;;;5.00;;
6564;SDS011;3316;44.118;27.258;2023-04-03T12:57:27;10.03;;;7.97;;
6564;SDS011;3316;44.118;27.258;2023-04-03T12:59:52;6.77;;;4.83;;
6564;SDS011;3316;44.118;27.258;2023-04-03T13:04:56;6.83;;;5.60;;
6564;SDS011;3316;44.118;27.258;2023-04-03T13:10:38;6.57;;;5.37;;
6564;SDS011;3316;44.118;27.258;2023-04-03T13:17:52;6.00;;;5.03;;
6564;SDS011;3316;44.118;27.258;2023-04-03T13:22:52;6.70;;;5.33;;
6564;SDS011;3316;44.118;27.258;2023-04-03T13:25:23;8.40;;;5.00;;
6564;SDS011;3316;44.118;27.258;2023-04-03T13:27:51;7.30;;;5.03;;
6564;SDS011;3316;44.118;27.258;2023-04-03T13:30:36;7.30;;;5.40;;
6564;SDS011;3316;44.118;27.258;2023-04-03T13:33:03;5.37;;;4.63;;
6564;SDS011;3316;44.118;27.258;2023-04-03T13:35:38;7.63;;;5.07;;
6564;SDS011;3316;44.118;27.258;2023-04-03T13:38:25;6.83;;;5.30;;
6564;SDS011;3316;44.118;27.258;2023-04-03T13:40:58;6.00;;;4.70;;
6564;SDS011;3316;44.118;27.258;2023-04-03T13:43:33;6.57;;;4.83;;
6564;SDS011;3316;44.118;27.258;2023-04-03T13:48:34;5.80;;;4.70;;
6564;SDS011;3316;44.118;27.258;2023-04-03T13:51:03;9.10;;;4.50;;
6564;SDS011;3316;44.118;27.258;2023-04-03T13:53:42;6.77;;;4.40;;
6564;SDS011;3316;44.118;27.258;2023-04-03T14:01:24;5.83;;;5.07;;
6564;SDS011;3316;44.118;27.258;2023-04-03T14:03:58;7.63;;;5.40;;
6564;SDS011;3316;44.118;27.258;2023-04-03T14:06:26;5.57;;;5.00;;
6564;SDS011;3316;44.118;27.258;2023-04-03T14:08:52;7.38;;;5.45;;
6564;SDS011;3316;44.118;27.258;2023-04-03T14:11:19;7.10;;;5.40;;
6564;SDS011;3316;44.118;27.258;2023-04-03T14:13:52;7.17;;;5.10;;
6564;SDS011;3316;44.118;27.258;2023-04-03T14:16:19;10.10;;;5.97;;
6564;SDS011;3316;44.118;27.258;2023-04-03T14:18:46;8.97;;;6.00;;
6564;SDS011;3316;44.118;27.258;2023-04-03T14:21:17;8.93;;;6.00;;
6564;SDS011;3316;44.118;27.258;2023-04-03T14:23:44;8.87;;;6.10;;
6564;SDS011;3316;44.118;27.258;2023-04-03T14:26:11;8.00;;;6.03;;
6564;SDS011;3316;44.118;27.258;2023-04-03T14:28:41;11.50;;;6.70;;
6564;SDS011;3316;44.118;27.258;2023-04-03T14:31:07;10.13;;;6.67;;
6564;SDS011;3316;44.118;27.258;2023-04-03T14:33:35;10.37;;;6.77;;
6564;SDS011;3316;44.118;27.258;2023-04-03T14:36:01;9.97;;;6.40;;
6564;SDS011;3316;44.118;27.258;2023-04-03T14:38:36;8.57;;;6.37;;
6564;SDS011;3316;44.118;27.258;2023-04-03T14:41:01;9.53;;;6.20;;
6564;SDS011;3316;44.118;27.258;2023-04-03T14:43:27;7.77;;;5.70;;
6564;SDS011;3316;44.118;27.258;2023-04-03T14:45:52;8.60;;;6.53;;
6564;SDS011;3316;44.118;27.258;2023-04-03T14:48:19;9.37;;;6.53;;
6564;SDS011;3316;44.118;27.258;2023-04-03T14:50:47;13.60;;;7.17;;
6564;SDS011;3316;44.118;27.258;2023-04-03T14:53:14;13.43;;;6.67;;
6564;SDS011;3316;44.118;27.258;2023-04-03T14:55:40;15.17;;;7.80;;
6564;SDS011;3316;44.118;27.258;2023-04-03T14:58:11;13.00;;;7.50;;
6564;SDS011;3316;44.118;27.258;2023-04-03T15:00:38;8.50;;;6.27;;
6564;SDS011;3316;44.118;27.258;2023-04-03T15:03:04;10.50;;;7.53;;
6564;SDS011;3316;44.118;27.258;2023-04-03T15:05:29;10.87;;;7.93;;
6564;SDS011;3316;44.118;27.258;2023-04-03T15:07:55;13.87;;;8.30;;
6564;SDS011;3316;44.118;27.258;2023-04-03T15:10:26;11.53;;;7.80;;
6564;SDS011;3316;44.118;27.258;2023-04-03T15:12:53;15.67;;;8.53;;
6564;SDS011;3316;44.118;27.258;2023-04-03T15:15:21;14.97;;;9.53;;
6564;SDS011;3316;44.118;27.258;2023-04-03T15:17:49;15.47;;;9.43;;
6564;SDS011;3316;44.118;27.258;2023-04-03T15:20:19;17.30;;;8.90;;
6564;SDS011;3316;44.118;27.258;2023-04-03T15:22:47;17.53;;;9.03;;
6564;SDS011;3316;44.118;27.258;2023-04-03T15:25:13;11.37;;;8.00;;
6564;SDS011;3316;44.118;27.258;2023-04-03T15:27:39;10.60;;;7.67;;
6564;SDS011;3316;44.118;27.258;2023-04-03T15:30:06;13.93;;;9.00;;
6564;SDS011;3316;44.118;27.258;2023-04-03T15:32:33;12.47;;;8.90;;
6564;SDS011;3316;44.118;27.258;2023-04-03T15:34:59;13.30;;;8.97;;
6564;SDS011;3316;44.118;27.258;2023-04-03T15:37:25;14.13;;;9.87;;
6564;SDS011;3316;44.118;27.258;2023-04-03T15:39:50;14.87;;;10.27;;
6564;SDS011;3316;44.118;27.258;2023-04-03T15:42:16;13.73;;;9.83;;
6564;SDS011;3316;44.118;27.258;2023-04-03T15:44:42;13.97;;;9.90;;
6564;SDS011;3316;44.118;27.258;2023-04-03T15:47:07;17.33;;;11.20;;
6564;SDS011;3316;44.118;27.258;2023-04-03T15:49:33;13.40;;;10.20;;
6564;SDS011;3316;44.118;27.258;2023-04-03T15:51:59;17.97;;;12.13;;
6564;SDS011;3316;44.118;27.258;2023-04-03T15:54:25;23.13;;;17.20;;
6564;SDS011;3316;44.118;27.258;2023-04-03T15:56:51;23.83;;;14.70;;
6564;SDS011;3316;44.118;27.258;2023-04-03T15:59:18;23.53;;;16.07;;
6564;SDS011;3316;44.118;27.258;2023-04-03T16:01:43;25.17;;;16.47;;
6564;SDS011;3316;44.118;27.258;2023-04-03T16:04:09;25.70;;;16.73;;
6564;SDS011;3316;44.118;27.258;2023-04-03T16:06:35;27.60;;;18.17;;
6564;SDS011;3316;44.118;27.258;2023-04-03T16:09:02;30.83;;;19.10;;
6564;SDS011;3316;44.118;27.258;2023-04-03T16:11:28;29.73;;;18.47;;
6564;SDS011;3316;44.118;27.258;2023-04-03T16:13:54;29.27;;;18.57;;
6564;SDS011;3316;44.118;27.258;2023-04-03T16:16:20;20.37;;;12.90;;
6564;SDS011;3316;44.118;27.258;2023-04-03T16:18:46;23.53;;;15.37;;
6564;SDS011;3316;44.118;27.258;2023-04-03T16:21:12;23.33;;;14.60;;
6564;SDS011;3316;44.118;27.258;2023-04-03T16:23:39;20.83;;;13.67;;
6564;SDS011;3316;44.118;27.258;2023-04-03T16:26:06;26.40;;;16.27;;
6564;SDS011;3316;44.118;27.258;2023-04-03T16:28:31;22.83;;;14.77;;
6564;SDS011;3316;44.118;27.258;2023-04-03T16:30:57;25.20;;;14.67;;
6564;SDS011;3316;44.118;27.258;2023-04-03T16:33:23;24.03;;;15.83;;
6564;SDS011;3316;44.118;27.258;2023-04-03T16:35:49;22.33;;;15.57;;
6564;SDS011;3316;44.118;27.258;2023-04-03T16:38:15;30.30;;;17.77;;
6564;SDS011;3316;44.118;27.258;2023-04-03T16:40:41;28.27;;;15.63;;
6564;SDS011;3316;44.118;27.258;2023-04-03T16:43:07;22.90;;;13.20;;
6564;SDS011;3316;44.118;27.258;2023-04-03T16:45:32;18.43;;;10.87;;
6564;SDS011;3316;44.118;27.258;2023-04-03T16:47:57;20.27;;;14.33;;
6564;SDS011;3316;44.118;27.258;2023-04-03T16:50:23;24.97;;;14.37;;
6564;SDS011;3316;44.118;27.258;2023-04-03T16:52:48;23.03;;;13.80;;
6564;SDS011;3316;44.118;27.258;2023-04-03T16:55:14;24.70;;;14.13;;
6564;SDS011;3316;44.118;27.258;2023-04-03T16:57:39;23.97;;;15.40;;